Terminal Aerodrome Forecast
Issued by NWS

Home | Current Version | Previous Version | Text Only | Print | Product List | Glossary On
Versions: 1 2 3 4 5 6 7 8 9 10 11 12 13 14 15 16 17 18 19 20 21 22 23 24 25 26 27 28 29 30 31 32 33 34 35 36 37
442
FTUS46 KLOX 260535
TAFLAX
TAF
KLAX 260535Z 2606/2712 26006KT P6SM FEW010
     FM260800 26006KT P6SM BKN012
     FM261700 26006KT P6SM SCT015
     FM262000 26014KT P6SM SKC
     FM270400 26006KT P6SM SKC
     FM270800 27006KT P6SM BKN012=

USA.gov is the U.S. government's official web portal to all federal, state and local government web resources and services.